Reading, KS (66868)

4:13 AM CST on December 04, 2016 (GMT -0600)
Skydive Kansas | | Change Station

Elev 1089 ft 38.64 °N, 95.80 °W | Updated 13 minutes ago

Overcast
Overcast
41.7 °F
Feels Like 42 °F
N
0.0
Wind Variable Wind from South
Gusts 0.0 mph

Today
High -- | Low -- °F
--% Chance of Precip.
Yesterday
High -- | Low -- °F
Precip. -- in
Pressure 30.03 in
Visibility 4.0 miles
Clouds Few 500 ft
Few 1700 ft
Overcast 3100 ft
Windchill 42 °F
Dew Point 32 °F
Humidity 68%
Rainfall 0.00 in
Snow Depth Not available.
7:25 AM 5:02 PM
Waxing Crescent, 21% visible
SPECI KEMP 041010Z AUTO 30003KT 4SM -RA BR FEW005 FEW017 OVC031 04/04 A3003 RMK AO2 P0002 T00390039
Pressure 30.03 in
Visibility 4.0 miles
Clouds Few 500 ft
Few 1700 ft
Overcast 3100 ft
Windchill 42 °F
Dew Point 32 °F
Humidity 68%
Rainfall 0.00 in
Snow Depth Not available.
7:25 AM 5:02 PM
Waxing Crescent, 21% visible
SPECI KEMP 041010Z AUTO 30003KT 4SM -RA BR FEW005 FEW017 OVC031 04/04 A3003 RMK AO2 P0002 T00390039

10-Day Weather Forecast

Almanac

Astronomy

Dec. 04, 2016 Rise Set
Actual Time
Civil Twilight
Nautical Twilight
Astronomical Twilight
Moon
Length of Visible Light
Length of Day
Tomorrow will be .
, % of the Moon is Illuminated

Today's Extremes

State Highs State Lows

Community

WunderPhotos

Upload Photos

1,955,591 photos uploaded!

WunderBlog® & News

Nearby

Air Quality

  Air Quality AQ Index Pollutant
Not available.

Snow Depth

Station Depth Elevation

Earthquake Activity

City Distance Mag. Time & Date
Minimum magnitude displayed is 2.5.

Coastal Water Temperatures

Place Temperature

Stations

Nearby Weather Stations

Station Location Temp. Windchill Dew Point Humidity Wind Precip. Elev Updated Type
                   

Watches & Warnings

There are currently no watches in effect.